Terminal Aerodrome Forecast
Issued by NWS

Home | Current Version | Previous Version | Text Only | Print | Product List | Glossary On
Versions: 1 2 3 4 5 6 7 8 9 10 11 12 13 14 15 16 17
517
FTUS44 KLIX 271740
TAFMSY
TAF
KMSY 271740Z 2718/2818 26008KT P6SM VCSH BKN040
     FM272100 23006KT 6SM -RA BKN090
     FM280000 22008KT P6SM BKN110
     FM280200 21007KT P6SM SCT120=

USA.gov is the U.S. government's official web portal to all federal, state and local government web resources and services.